Wolflake, Indiana
Current Conditions -  °F | °C
As of 2:15 PM on Monday 22 Dec 2014 (Local Time) from KASW Reporting Station
Light Rain Light Rain  
Wind Chill: 29°   Ceiling: 900
Heat Index: 36°   Visibility: 5mi
Dew Point: 32°   Wind: 8mph
Humidity: 87%   Direction: 110°ESE
Pressure: 29.84"   Gusts: NA
Location:  41.34°N, 85.5°W
Report Text: KASW 221915Z AUTO 11007KT 5SM -RA OVC009 02/00 A2984 RMK AO2
Loading
Personal Weather Stations






























Interactive Weather Map New forecast layout! Learn more

10-Day Weather Forecast

Advertisements
Track Severe Weather on mobile